Time;durP1;ratioP1;P1;durP2;ratioP2;P2;SDS_P1;SDS_P2;PMS_P1;PMS_P2;Temp;Humidity;BMP_temperature;BMP_pressure;BME280_temperature;BME280_humidity;BME280_pressure;Samples;Min_cycle;Max_cycle;Signal;HPM_P1;HPM_P2
2023/11/09 00:00:41;;;;;;;1.90;1.58;;;22.00;35.00;;;;;;6211768;23;20178;-36
2023/11/09 00:03:07;;;;;;;1.60;1.50;;;22.10;35.10;;;;;;6211850;23;20657;-38
2023/11/09 00:05:34;;;;;;;1.58;1.45;;;22.10;35.20;;;;;;6213374;23;20198;-40
2023/11/09 00:08:00;;;;;;;1.52;1.42;;;22.10;35.20;;;;;;6213471;23;20643;-40
2023/11/09 00:10:27;;;;;;;1.45;1.35;;;22.00;35.30;;;;;;6213479;23;20690;-37
2023/11/09 00:12:53;;;;;;;1.80;1.70;;;22.00;35.40;;;;;;6213938;23;20194;-40
2023/11/09 00:15:20;;;;;;;1.48;1.30;;;22.00;35.60;;;;;;6214160;23;20205;-40
2023/11/09 00:17:46;;;;;;;1.60;1.50;;;22.00;35.60;;;;;;6213466;23;20548;-39
2023/11/09 00:20:13;;;;;;;2.05;1.30;;;22.00;35.70;;;;;;6211005;23;20550;-40
2023/11/09 00:22:39;;;;;;;1.48;1.38;;;22.00;35.70;;;;;;6213125;23;20274;-39
2023/11/09 00:25:06;;;;;;;1.67;1.50;;;22.00;35.70;;;;;;6214147;23;20188;-40
2023/11/09 00:27:33;;;;;;;1.40;1.30;;;22.00;35.80;;;;;;6214228;23;20209;-40
2023/11/09 00:29:59;;;;;;;1.60;1.50;;;22.00;35.80;;;;;;6212845;23;20264;-38
2023/11/09 00:32:26;;;;;;;1.88;1.33;;;22.00;35.80;;;;;;6213671;23;20193;-40
2023/11/09 00:34:52;;;;;;;1.30;1.20;;;22.00;35.90;;;;;;6214115;23;20257;-40
2023/11/09 00:37:21;;;;;;;1.50;1.40;;;22.00;35.90;;;;;;6210924;23;20548;-38
2023/11/09 00:39:48;;;;;;;1.80;1.70;;;22.00;35.90;;;;;;6212239;23;20236;-40
2023/11/09 00:42:15;;;;;;;1.48;1.38;;;22.00;35.90;;;;;;6213252;23;20284;-40
2023/11/09 00:44:41;;;;;;;3.08;1.50;;;22.00;35.90;;;;;;6214738;23;20178;-39
2023/11/09 00:47:08;;;;;;;1.80;1.67;;;22.00;35.90;;;;;;6213554;23;20233;-40
2023/11/09 00:49:34;;;;;;;1.40;1.30;;;22.10;36.00;;;;;;6214241;23;20265;-40
2023/11/09 00:52:01;;;;;;;1.73;1.48;;;22.10;35.90;;;;;;6212329;23;20232;-39
2023/11/09 00:54:27;;;;;;;1.63;1.52;;;22.10;36.00;;;;;;6211963;23;20174;-40
2023/11/09 00:56:54;;;;;;;1.70;1.60;;;22.00;36.00;;;;;;6212280;23;20257;-40
2023/11/09 00:59:20;;;;;;;1.77;1.48;;;22.00;36.00;;;;;;6213852;23;20565;-40
2023/11/09 01:01:47;;;;;;;1.80;1.70;;;22.10;36.10;;;;;;6212343;23;20244;-40
2023/11/09 01:04:13;;;;;;;2.15;1.25;;;22.00;36.80;;;;;;6213835;23;20630;-40
2023/11/09 01:06:40;;;;;;;3.20;1.20;;;22.00;36.10;;;;;;6213980;23;20198;-40
2023/11/09 01:09:06;;;;;;;1.48;1.38;;;22.00;36.20;;;;;;6214358;23;20212;-40
2023/11/09 01:11:33;;;;;;;1.50;1.40;;;22.00;36.30;;;;;;6210705;23;20225;-40
2023/11/09 01:13:59;;;;;;;1.48;1.30;;;22.00;36.30;;;;;;6212825;23;20185;-38
2023/11/09 01:16:26;;;;;;;1.70;1.40;;;22.00;36.30;;;;;;6213109;23;20526;-40
2023/11/09 01:18:52;;;;;;;2.35;1.40;;;22.00;36.30;;;;;;6213981;23;20573;-40
2023/11/09 01:21:19;;;;;;;3.55;1.52;;;22.00;36.30;;;;;;6212586;23;20256;-40
2023/11/09 01:23:45;;;;;;;1.40;1.30;;;22.00;36.30;;;;;;6214054;23;20182;-40
2023/11/09 01:26:13;;;;;;;1.70;1.60;;;22.00;36.30;;;;;;6213803;23;20516;-40
2023/11/09 01:28:40;;;;;;;1.80;1.40;;;22.00;36.30;;;;;;6211301;23;20173;-40
2023/11/09 01:31:06;;;;;;;1.92;1.55;;;22.00;36.30;;;;;;6211191;23;20221;-40
2023/11/09 01:33:32;;;;;;;1.40;1.30;;;22.00;36.30;;;;;;6213754;23;20268;-40
2023/11/09 01:36:00;;;;;;;1.65;1.55;;;22.00;36.30;;;;;;6211444;23;20647;-40
2023/11/09 01:38:26;;;;;;;1.50;1.40;;;22.00;36.30;;;;;;6213650;23;20210;-40
2023/11/09 01:40:53;;;;;;;2.05;1.40;;;22.00;36.30;;;;;;6212492;23;20258;-39
2023/11/09 01:43:19;;;;;;;1.63;1.35;;;22.00;36.30;;;;;;6212584;23;20221;-36
2023/11/09 01:45:50;;;;;;;1.35;1.25;;;22.00;36.30;;;;;;6212083;23;20269;-36
2023/11/09 01:48:17;;;;;;;1.50;1.40;;;22.00;37.00;;;;;;6209578;23;20217;-38
2023/11/09 01:50:44;;;;;;;1.40;1.30;;;22.10;36.40;;;;;;6211361;23;20194;-40
2023/11/09 01:53:10;;;;;;;1.65;1.40;;;22.00;36.30;;;;;;6212356;23;20267;-40
2023/11/09 01:55:37;;;;;;;2.38;1.50;;;22.00;36.30;;;;;;6210864;23;20232;-40
2023/11/09 01:58:03;;;;;;;2.85;1.40;;;22.00;36.30;;;;;;6209940;23;20706;-40
2023/11/09 02:00:29;;;;;;;1.50;1.40;;;22.10;36.40;;;;;;6211808;23;20229;-38
2023/11/09 02:02:56;;;;;;;1.08;1.08;;;22.00;36.30;;;;;;6213894;23;20208;-38
2023/11/09 02:05:23;;;;;;;1.30;1.20;;;22.10;36.40;;;;;;6213594;23;20627;-39
2023/11/09 02:07:49;;;;;;;1.20;1.10;;;22.00;36.30;;;;;;6208904;23;20671;-40
2023/11/09 02:10:16;;;;;;;1.58;1.48;;;22.10;36.40;;;;;;6212666;23;20177;-40
2023/11/09 02:12:42;;;;;;;1.55;1.45;;;22.00;36.30;;;;;;6209070;23;20237;-37
2023/11/09 02:15:09;;;;;;;1.42;1.33;;;22.00;36.30;;;;;;6210553;23;20304;-39
2023/11/09 02:17:35;;;;;;;1.45;1.35;;;22.00;36.30;;;;;;6210896;23;20182;-40
2023/11/09 02:20:03;;;;;;;1.58;1.48;;;22.00;36.30;;;;;;6213464;23;20204;-40
2023/11/09 02:22:30;;;;;;;1.42;1.13;;;22.00;36.30;;;;;;6213206;23;20228;-40
2023/11/09 02:24:56;;;;;;;2.15;1.40;;;22.00;36.30;;;;;;6214198;23;20257;-38
2023/11/09 02:27:23;;;;;;;1.40;1.30;;;22.00;36.30;;;;;;6207941;23;20293;-39
2023/11/09 02:29:49;;;;;;;1.65;1.35;;;22.00;36.30;;;;;;6212810;23;20174;-40
2023/11/09 02:32:17;;;;;;;1.40;1.30;;;22.00;36.30;;;;;;6211494;23;20225;-40
2023/11/09 02:34:44;;;;;;;1.20;1.10;;;22.00;36.30;;;;;;6213657;23;20178;-39
2023/11/09 02:37:10;;;;;;;1.40;1.30;;;22.00;36.30;;;;;;6212545;23;20205;-40
2023/11/09 02:39:37;;;;;;;3.63;1.50;;;22.00;36.30;;;;;;6213450;23;20265;-40
2023/11/09 02:42:03;;;;;;;1.55;1.33;;;22.00;36.30;;;;;;6211604;23;20225;-40
2023/11/09 02:44:29;;;;;;;1.08;1.02;;;22.00;36.30;;;;;;6211197;23;20197;-39
2023/11/09 02:46:56;;;;;;;1.48;1.30;;;22.00;36.30;;;;;;6210734;23;20284;-40
2023/11/09 02:49:22;;;;;;;2.33;1.20;;;22.00;36.30;;;;;;6213669;23;20174;-40
2023/11/09 02:51:49;;;;;;;1.38;1.27;;;22.00;36.40;;;;;;6212115;23;20281;-40
2023/11/09 02:54:15;;;;;;;1.30;1.23;;;22.00;36.30;;;;;;6214023;23;20224;-40
2023/11/09 02:56:42;;;;;;;1.40;1.30;;;22.00;36.30;;;;;;6212741;23;20193;-40
2023/11/09 02:59:08;;;;;;;1.30;1.13;;;22.10;36.40;;;;;;6213024;23;20173;-40
2023/11/09 03:01:35;;;;;;;1.52;1.42;;;22.00;36.30;;;;;;6211559;23;20225;-40
2023/11/09 03:04:02;;;;;;;2.78;1.25;;;22.00;36.30;;;;;;6213973;23;20178;-40
2023/11/09 03:06:29;;;;;;;1.35;1.10;;;22.00;36.30;;;;;;6214715;23;20210;-40
2023/11/09 03:08:56;;;;;;;1.50;1.40;;;22.00;36.30;;;;;;6215867;23;20257;-38
2023/11/09 03:11:23;;;;;;;1.25;1.15;;;22.00;36.40;;;;;;6213586;23;20226;-39
2023/11/09 03:13:50;;;;;;;2.05;1.20;;;22.00;36.30;;;;;;6214119;23;20189;-40
2023/11/09 03:16:17;;;;;;;1.10;1.08;;;22.00;36.40;;;;;;6214685;23;20177;-40
2023/11/09 03:18:44;;;;;;;2.33;1.13;;;22.00;36.40;;;;;;6213649;23;20177;-40
2023/11/09 03:21:10;;;;;;;3.22;1.40;;;22.00;36.50;;;;;;6211206;23;20229;-40
2023/11/09 03:23:37;;;;;;;1.45;1.10;;;22.00;36.50;;;;;;6213404;23;20178;-40
2023/11/09 03:26:04;;;;;;;1.60;1.50;;;22.00;36.40;;;;;;6215238;23;20260;-40
2023/11/09 03:28:31;;;;;;;1.83;1.33;;;22.00;36.40;;;;;;6214991;23;20257;-40
2023/11/09 03:30:59;;;;;;;1.20;1.10;;;22.00;36.30;;;;;;6213677;23;20277;-40
2023/11/09 03:33:25;;;;;;;1.20;1.10;;;22.00;36.30;;;;;;6215708;23;20185;-37
2023/11/09 03:35:52;;;;;;;1.35;1.25;;;22.00;36.40;;;;;;6214773;23;20282;-40
2023/11/09 03:38:18;;;;;;;1.20;1.10;;;22.00;36.30;;;;;;6212551;23;20257;-40
2023/11/09 03:40:45;;;;;;;1.20;1.10;;;22.00;36.50;;;;;;6212413;23;20201;-38
2023/11/09 03:43:11;;;;;;;1.02;1.00;;;22.00;36.50;;;;;;6214575;23;20205;-40
2023/11/09 03:45:38;;;;;;;1.30;1.20;;;22.00;36.40;;;;;;6212259;23;20256;-37
2023/11/09 03:48:04;;;;;;;1.20;1.15;;;22.00;36.40;;;;;;6213346;23;20281;-40
2023/11/09 03:50:31;;;;;;;1.50;1.30;;;22.00;36.40;;;;;;6214083;23;20225;-39
2023/11/09 03:52:57;;;;;;;2.25;1.17;;;22.00;36.50;;;;;;6214334;23;20182;-40
2023/11/09 03:55:24;;;;;;;1.35;1.15;;;22.00;36.30;;;;;;6214564;23;20702;-39
2023/11/09 03:57:50;;;;;;;1.20;1.10;;;22.00;36.30;;;;;;6214095;23;20185;-39
2023/11/09 04:00:18;;;;;;;1.30;1.20;;;22.00;36.30;;;;;;6212061;23;20221;-37
2023/11/09 04:02:45;;;;;;;1.20;1.10;;;22.00;36.30;;;;;;6210679;23;20532;-40
2023/11/09 04:05:11;;;;;;;2.80;1.20;;;22.00;36.30;;;;;;6214140;23;20564;-40
2023/11/09 04:07:38;;;;;;;1.20;1.13;;;22.00;36.30;;;;;;6214940;23;20602;-39
2023/11/09 04:10:06;;;;;;;1.80;1.20;;;22.00;37.00;;;;;;6214110;23;20297;-38
2023/11/09 04:12:32;;;;;;;1.45;1.35;;;22.00;36.50;;;;;;6213135;23;20499;-40
2023/11/09 04:14:59;;;;;;;1.83;1.40;;;22.00;36.50;;;;;;6214837;23;20228;-40
2023/11/09 04:17:26;;;;;;;1.63;1.52;;;22.00;36.50;;;;;;6213390;23;20185;-40
2023/11/09 04:19:52;;;;;;;2.38;1.30;;;22.00;36.60;;;;;;6211319;23;20192;-39
2023/11/09 04:22:19;;;;;;;1.10;1.00;;;22.00;36.60;;;;;;6212764;23;20220;-40
2023/11/09 04:24:46;;;;;;;1.60;1.13;;;22.00;37.30;;;;;;6214724;23;20217;-40
2023/11/09 04:27:12;;;;;;;1.35;1.20;;;22.00;36.70;;;;;;6213359;23;20198;-40
2023/11/09 04:29:39;;;;;;;1.30;1.20;;;22.00;36.60;;;;;;6214038;23;20792;-38
2023/11/09 04:32:08;;;;;;;1.83;1.20;;;22.00;36.60;;;;;;6213282;23;20202;-40
2023/11/09 04:34:35;;;;;;;1.65;1.27;;;22.00;36.60;;;;;;6214975;23;20174;-34
2023/11/09 04:37:02;;;;;;;1.60;1.50;;;22.00;36.60;;;;;;6214509;23;20181;-40
2023/11/09 04:39:31;;;;;;;1.33;1.05;;;22.00;36.60;;;;;;6209972;23;20178;-34
2023/11/09 04:41:57;;;;;;;1.10;1.00;;;22.00;36.60;;;;;;6211910;23;20185;-40
2023/11/09 04:44:24;;;;;;;1.20;1.20;;;22.00;36.60;;;;;;6214446;23;20178;-39
2023/11/09 04:46:49;;;;;;;1.83;1.20;;;22.00;36.60;;;;;;6213860;23;20284;-38
2023/11/09 04:49:18;;;;;;;1.23;1.13;;;22.00;36.70;;;;;;6213805;23;20369;-39
2023/11/09 04:51:46;;;;;;;1.25;1.15;;;22.00;36.70;;;;;;6213313;23;20269;-37
2023/11/09 04:54:19;;;;;;;2.75;1.10;;;22.00;36.70;;;;;;6214002;23;20178;-40
2023/11/09 04:57:03;;;;;;;2.33;1.40;;;22.00;36.90;;;;;;6210864;23;20170;-40
2023/11/09 05:07:42;;;;;;;2.45;1.30;;;22.00;36.80;;;;;;6213691;23;20212;-40
2023/11/09 05:10:09;;;;;;;3.63;1.23;;;22.10;36.80;;;;;;6213285;23;20212;-40
2023/11/09 05:12:35;;;;;;;1.42;1.10;;;22.00;36.80;;;;;;6213746;23;20208;-40
2023/11/09 05:15:02;;;;;;;1.20;1.10;;;22.00;36.80;;;;;;6211223;23;20212;-41
2023/11/09 05:17:29;;;;;;;1.42;1.33;;;22.00;36.80;;;;;;6211484;23;20209;-36
2023/11/09 05:19:57;;;;;;;2.08;1.10;;;22.00;36.80;;;;;;6214023;23;20198;-40
2023/11/09 05:22:23;;;;;;;2.05;1.25;;;22.00;36.80;;;;;;6212564;23;20634;-39
2023/11/09 05:24:50;;;;;;;1.73;1.48;;;22.00;36.80;;;;;;6214371;23;20178;-41
2023/11/09 05:27:17;;;;;;;2.47;1.50;;;22.00;36.90;;;;;;6213265;23;20197;-40
2023/11/09 05:29:45;;;;;;;1.23;1.13;;;22.00;36.90;;;;;;6213669;23;20198;-38
2023/11/09 05:32:13;;;;;;;1.42;1.10;;;22.00;36.80;;;;;;6211813;23;20352;-40
2023/11/09 05:34:40;;;;;;;1.20;1.10;;;22.00;36.90;;;;;;6211413;23;20174;-40
2023/11/09 05:37:07;;;;;;;1.63;1.20;;;22.00;36.80;;;;;;6211594;23;20178;-40
2023/11/09 05:39:33;;;;;;;1.25;1.10;;;22.00;36.80;;;;;;6213432;23;20225;-40
2023/11/09 05:42:00;;;;;;;1.20;1.10;;;22.00;36.90;;;;;;6212312;23;20672;-39
2023/11/09 05:44:26;;;;;;;1.17;1.08;;;22.00;36.80;;;;;;6214392;23;20162;-38
2023/11/09 05:46:54;;;;;;;2.35;1.35;;;22.00;36.80;;;;;;6209657;23;20284;-40
2023/11/09 05:49:21;;;;;;;2.25;1.20;;;22.00;36.80;;;;;;6212098;23;20206;-40
2023/11/09 05:51:48;;;;;;;1.42;1.10;;;22.00;36.90;;;;;;6212471;23;20181;-40
2023/11/09 05:54:14;;;;;;;1.35;1.25;;;22.00;36.90;;;;;;6213448;23;20623;-40
2023/11/09 05:56:41;;;;;;;1.05;1.02;;;22.00;36.90;;;;;;6213106;23;20555;-38
2023/11/09 05:59:09;;;;;;;1.33;1.20;;;22.00;36.90;;;;;;6212912;23;20205;-40
2023/11/09 06:01:35;;;;;;;3.08;1.63;;;22.00;36.90;;;;;;6212249;23;20212;-40
2023/11/09 06:04:02;;;;;;;1.45;1.35;;;22.00;36.90;;;;;;6212512;23;20232;-40
2023/11/09 06:06:29;;;;;;;1.10;1.10;;;22.00;36.90;;;;;;6211133;23;20264;-39
2023/11/09 06:08:56;;;;;;;2.45;1.33;;;22.00;36.90;;;;;;6211368;23;20209;-40
2023/11/09 06:11:24;;;;;;;1.23;1.20;;;22.00;36.90;;;;;;6212498;23;20194;-40
2023/11/09 06:13:51;;;;;;;1.25;1.15;;;22.00;36.90;;;;;;6212468;23;20236;-38
2023/11/09 06:16:18;;;;;;;1.02;1.00;;;22.00;37.00;;;;;;6212832;23;20228;-40
2023/11/09 06:18:44;;;;;;;1.40;1.23;;;22.00;37.00;;;;;;6213393;23;20185;-40
2023/11/09 06:21:12;;;;;;;1.88;1.13;;;22.00;37.10;;;;;;6212808;23;20227;-39
2023/11/09 06:23:38;;;;;;;1.20;1.10;;;22.00;37.80;;;;;;6210233;23;20182;-41
2023/11/09 06:26:05;;;;;;;1.48;1.27;;;22.00;37.10;;;;;;6211323;23;20635;-40
2023/11/09 06:28:32;;;;;;;2.13;1.40;;;22.00;37.00;;;;;;6212426;23;20284;-40
2023/11/09 06:31:04;;;;;;;1.00;1.00;;;22.00;37.10;;;;;;6211722;23;20194;-38
2023/11/09 06:33:30;;;;;;;3.70;1.02;;;22.00;37.00;;;;;;6213327;23;20543;-40
2023/11/09 06:35:57;;;;;;;1.30;1.20;;;22.00;37.00;;;;;;6213879;23;20205;-39
2023/11/09 06:38:23;;;;;;;1.08;0.98;;;22.00;37.10;;;;;;6208994;23;20213;-40
2023/11/09 06:40:49;;;;;;;2.03;1.25;;;22.00;37.00;;;;;;6211355;23;20245;-38
2023/11/09 06:43:16;;;;;;;1.95;1.00;;;22.00;37.00;;;;;;6210868;23;20232;-39
2023/11/09 06:45:42;;;;;;;1.30;1.20;;;22.00;37.00;;;;;;6210860;23;20184;-41
2023/11/09 06:48:09;;;;;;;1.40;1.30;;;22.00;37.70;;;;;;6213422;23;20285;-40
2023/11/09 06:50:35;;;;;;;4.97;1.40;;;22.00;37.30;;;;;;6213614;23;20626;-39
2023/11/09 06:53:02;;;;;;;4.60;1.48;;;22.00;37.60;;;;;;6214846;23;20182;-38
2023/11/09 06:55:29;;;;;;;3.53;1.50;;;22.00;37.70;;;;;;6213430;23;20216;-40
2023/11/09 06:57:55;;;;;;;3.65;1.30;;;22.00;37.70;;;;;;6212850;23;20937;-37
2023/11/09 07:00:24;;;;;;;3.97;1.50;;;21.90;37.70;;;;;;6213341;23;20201;-40
2023/11/09 07:02:50;;;;;;;2.65;1.45;;;22.00;38.00;;;;;;6213131;23;20177;-42
2023/11/09 07:05:16;;;;;;;4.28;1.88;;;21.90;37.60;;;;;;6207303;23;20177;-40
2023/11/09 07:07:43;;;;;;;3.90;2.20;;;21.20;28.00;;;;;;6209768;23;20198;-40
2023/11/09 07:10:09;;;;;;;4.53;2.20;;;17.30;27.20;;;;;;6212044;23;20272;-38
2023/11/09 07:12:36;;;;;;;4.07;2.00;;;17.50;30.40;;;;;;6212856;23;20178;-41
2023/11/09 07:15:03;;;;;;;4.23;1.80;;;18.90;30.10;;;;;;6212248;23;20201;-36
2023/11/09 07:17:29;;;;;;;3.07;1.60;;;19.90;30.30;;;;;;6214304;23;20228;-40
2023/11/09 07:19:56;;;;;;;2.03;1.47;;;20.40;30.40;;;;;;6208051;23;20202;-39
2023/11/09 07:22:22;;;;;;;2.97;2.10;;;20.70;30.80;;;;;;6214350;23;20178;-38
2023/11/09 07:24:52;;;;;;;4.00;2.00;;;20.90;31.30;;;;;;6214966;23;20178;-39
2023/11/09 07:27:19;;;;;;;2.47;2.00;;;21.00;31.70;;;;;;6215184;23;20252;-36
2023/11/09 07:29:46;;;;;;;2.17;1.95;;;21.10;32.00;;;;;;6213267;23;20225;-38
2023/11/09 07:32:13;;;;;;;3.43;2.20;;;21.10;32.20;;;;;;6213455;23;20178;-39
2023/11/09 07:34:39;;;;;;;1.90;1.70;;;21.10;32.10;;;;;;6207158;23;20252;-39
2023/11/09 07:37:06;;;;;;;3.67;1.67;;;21.20;32.20;;;;;;6212850;23;20695;-39
2023/11/09 07:39:32;;;;;;;3.20;1.77;;;21.30;32.40;;;;;;6209000;23;20281;-39
2023/11/09 07:41:59;;;;;;;2.70;2.15;;;21.30;32.50;;;;;;6211868;23;20228;-37
2023/11/09 07:44:27;;;;;;;5.53;2.05;;;21.30;32.40;;;;;;6210411;23;20206;-40
2023/11/09 07:46:54;;;;;;;3.67;1.80;;;21.30;32.70;;;;;;6211500;23;20500;-40
2023/11/09 07:49:20;;;;;;;6.10;2.30;;;21.40;32.50;;;;;;6214324;23;20275;-40
2023/11/09 07:51:46;;;;;;;3.10;1.92;;;21.40;32.70;;;;;;6213804;23;20269;-41
2023/11/09 07:54:13;;;;;;;3.75;1.77;;;21.40;32.60;;;;;;6210092;23;20264;-39
2023/11/09 07:56:39;;;;;;;3.97;1.90;;;21.40;32.80;;;;;;6209400;23;20322;-41
2023/11/09 07:59:06;;;;;;;6.32;1.95;;;21.40;32.60;;;;;;6212509;23;20201;-41
2023/11/09 08:01:32;;;;;;;3.53;2.10;;;21.50;32.40;;;;;;6211485;23;20264;-39
2023/11/09 08:03:59;;;;;;;2.97;2.10;;;21.40;31.40;;;;;;6213997;23;20255;-39
2023/11/09 08:06:26;;;;;;;2.80;2.08;;;21.40;31.40;;;;;;6210839;23;20174;-38
2023/11/09 08:08:52;;;;;;;6.47;2.20;;;21.40;30.60;;;;;;6210600;23;20206;-38
2023/11/09 08:11:19;;;;;;;2.75;2.03;;;21.40;31.00;;;;;;6213879;23;20256;-40
2023/11/09 08:13:46;;;;;;;2.50;2.33;;;21.40;31.60;;;;;;6213412;23;20174;-40
2023/11/09 08:16:12;;;;;;;3.10;2.28;;;21.30;31.60;;;;;;6211881;23;20178;-37
2023/11/09 08:18:39;;;;;;;2.72;2.00;;;21.40;31.80;;;;;;6208185;23;20726;-38
2023/11/09 08:21:05;;;;;;;3.22;2.08;;;21.40;32.10;;;;;;6209038;23;20549;-38
2023/11/09 08:23:32;;;;;;;1.92;1.80;;;21.40;32.10;;;;;;6214105;23;20259;-37
2023/11/09 08:25:58;;;;;;;4.25;2.00;;;21.40;32.20;;;;;;6214178;23;20174;-36
2023/11/09 08:28:25;;;;;;;3.55;2.60;;;21.40;32.20;;;;;;6208133;23;20289;-38
2023/11/09 08:30:52;;;;;;;3.78;2.10;;;21.40;32.20;;;;;;6211615;23;20181;-36
2023/11/09 08:33:21;;;;;;;3.90;2.00;;;21.40;31.80;;;;;;6213134;23;20196;-37
2023/11/09 08:35:48;;;;;;;3.53;2.08;;;21.50;32.10;;;;;;6210783;23;20515;-38
2023/11/09 08:38:15;;;;;;;2.58;2.38;;;21.50;32.10;;;;;;6210275;23;20236;-37
2023/11/09 08:40:42;;;;;;;2.67;1.80;;;21.50;31.70;;;;;;6208916;23;20329;-34
2023/11/09 08:43:10;;;;;;;3.78;2.20;;;21.50;32.00;;;;;;6212205;23;20185;-35
2023/11/09 08:45:36;;;;;;;5.05;2.55;;;21.50;31.60;;;;;;6213685;23;20256;-36
2023/11/09 08:48:04;;;;;;;4.22;2.33;;;21.50;31.70;;;;;;6208753;23;20248;-36
2023/11/09 08:50:31;;;;;;;9.57;2.30;;;21.50;31.00;;;;;;6211778;23;20635;-38
2023/11/09 08:52:58;;;;;;;4.35;1.95;;;21.60;32.20;;;;;;6213769;23;20533;-37
2023/11/09 08:55:25;;;;;;;6.15;2.33;;;21.60;32.10;;;;;;6214147;23;20181;-36
2023/11/09 08:57:52;;;;;;;3.60;2.03;;;21.50;32.10;;;;;;6214479;23;20198;-39
2023/11/09 09:00:18;;;;;;;3.00;2.00;;;21.50;31.90;;;;;;6214592;23;20228;-39
2023/11/09 09:02:48;;;;;;;3.00;1.73;;;21.50;32.00;;;;;;6213663;23;20189;-38
2023/11/09 09:05:15;;;;;;;3.00;1.73;;;21.50;31.60;;;;;;6211838;23;20181;-39
2023/11/09 09:07:41;;;;;;;2.53;1.98;;;21.50;31.90;;;;;;6212578;23;20202;-39
2023/11/09 09:10:11;;;;;;;3.97;2.00;;;21.50;31.90;;;;;;6214229;23;20253;-38
2023/11/09 09:12:37;;;;;;;1.88;1.70;;;21.50;32.00;;;;;;6213815;23;20196;-40
2023/11/09 09:15:12;;;;;;;3.97;2.20;;;21.50;32.10;;;;;;6214387;23;20206;-37
2023/11/09 09:17:40;;;;;;;3.55;2.13;;;21.60;32.10;;;;;;6214313;23;20208;-38
2023/11/09 09:20:07;;;;;;;2.70;1.92;;;21.60;32.10;;;;;;6214540;23;20174;-37
2023/11/09 09:22:34;;;;;;;3.97;1.98;;;21.60;32.10;;;;;;6213685;23;20178;-39
2023/11/09 09:25:00;;;;;;;2.17;1.73;;;21.60;32.30;;;;;;6211221;23;20236;-38
2023/11/09 09:27:28;;;;;;;3.47;1.90;;;21.60;32.30;;;;;;6213581;23;20647;-38
2023/11/09 09:29:55;;;;;;;2.30;1.80;;;21.60;32.10;;;;;;6213133;23;20689;-39
2023/11/09 09:32:21;;;;;;;2.45;1.90;;;21.70;32.20;;;;;;6213970;23;20178;-39
2023/11/09 09:34:49;;;;;;;3.53;1.98;;;21.70;32.20;;;;;;6214260;23;20182;-38
2023/11/09 09:37:16;;;;;;;2.47;1.85;;;21.70;32.10;;;;;;6213700;23;20568;-39
2023/11/09 09:39:43;;;;;;;2.08;1.88;;;21.70;32.00;;;;;;6214452;23;20178;-38
2023/11/09 09:42:14;;;;;;;1.40;1.30;;;21.70;32.00;;;;;;6213528;23;20192;-38
2023/11/09 09:44:42;;;;;;;4.82;1.95;;;21.70;32.00;;;;;;6210697;23;20162;-39
2023/11/09 09:47:09;;;;;;;1.92;1.60;;;21.70;32.00;;;;;;6212825;23;20178;-38
2023/11/09 09:49:36;;;;;;;2.20;2.00;;;21.70;32.10;;;;;;6214281;23;20205;-38
2023/11/09 09:52:02;;;;;;;3.45;1.70;;;21.70;32.10;;;;;;6213526;23;20561;-38
2023/11/09 09:54:29;;;;;;;1.70;1.60;;;21.70;32.00;;;;;;6214265;23;20205;-38
2023/11/09 09:56:55;;;;;;;2.03;1.50;;;21.70;32.20;;;;;;6213918;23;20257;-38
2023/11/09 09:59:22;;;;;;;3.00;2.00;;;21.70;32.10;;;;;;6214311;23;20240;-38
2023/11/09 10:01:48;;;;;;;1.63;1.40;;;21.80;32.30;;;;;;6210167;23;20178;-38
2023/11/09 10:04:15;;;;;;;1.50;1.40;;;21.80;32.30;;;;;;6212257;23;20699;-38
2023/11/09 10:06:41;;;;;;;1.88;1.58;;;21.70;32.60;;;;;;6214087;23;20239;-39
2023/11/09 10:09:08;;;;;;;1.95;1.50;;;21.80;32.50;;;;;;6212240;23;20240;-40
2023/11/09 10:11:35;;;;;;;2.00;1.80;;;21.80;32.20;;;;;;6212491;23;20181;-38
2023/11/09 10:14:01;;;;;;;2.17;1.63;;;21.80;32.20;;;;;;6204688;23;20186;-38
2023/11/09 10:16:28;;;;;;;1.67;1.58;;;21.80;32.40;;;;;;6212059;23;20174;-39
2023/11/09 10:18:55;;;;;;;2.40;1.80;;;21.80;32.60;;;;;;6212234;23;20203;-34
2023/11/09 10:21:21;;;;;;;2.40;1.63;;;22.00;33.30;;;;;;6211888;23;20261;-34
2023/11/09 10:23:47;;;;;;;1.58;1.48;;;22.00;33.00;;;;;;6212883;23;20216;-35
2023/11/09 10:26:14;;;;;;;2.13;1.80;;;21.90;32.80;;;;;;6206019;23;20236;-36
2023/11/09 10:28:40;;;;;;;2.40;1.63;;;21.90;32.70;;;;;;6212700;23;20289;-36
2023/11/09 10:31:08;;;;;;;2.58;1.42;;;21.90;32.80;;;;;;6211911;23;20619;-35
2023/11/09 10:33:34;;;;;;;1.90;1.50;;;22.00;32.80;;;;;;6211366;23;20185;-37
2023/11/09 10:36:04;;;;;;;1.40;1.30;;;22.00;32.90;;;;;;6212919;23;20186;-36
2023/11/09 10:38:30;;;;;;;2.30;1.60;;;21.90;32.90;;;;;;6212290;23;20581;-35
2023/11/09 10:40:59;;;;;;;2.00;1.40;;;21.90;32.80;;;;;;6203287;23;20319;-37
2023/11/09 10:43:25;;;;;;;1.73;1.50;;;21.90;32.90;;;;;;6212347;23;20185;-34
2023/11/09 10:45:52;;;;;;;1.40;1.27;;;21.90;32.80;;;;;;6211497;23;20256;-34
2023/11/09 10:48:18;;;;;;;1.83;1.30;;;21.90;32.70;;;;;;6213255;23;20497;-35
2023/11/09 10:50:47;;;;;;;1.33;1.23;;;21.90;32.80;;;;;;6211316;23;20232;-38
2023/11/09 10:53:15;;;;;;;1.50;1.40;;;21.90;33.10;;;;;;6212870;23;20647;-36
2023/11/09 10:55:43;;;;;;;4.10;1.50;;;21.90;33.60;;;;;;6212890;23;20182;-35
2023/11/09 10:58:12;;;;;;;2.65;1.30;;;21.90;33.50;;;;;;6211497;23;20198;-43
2023/11/09 11:00:42;;;;;;;1.50;1.30;;;21.90;33.60;;;;;;6208073;23;20178;-41
2023/11/09 11:03:09;;;;;;;1.30;1.20;;;22.00;33.70;;;;;;6213363;23;20174;-44
2023/11/09 11:05:37;;;;;;;1.75;1.35;;;21.90;34.10;;;;;;6207048;23;20184;-43
2023/11/09 11:08:04;;;;;;;1.60;1.20;;;21.90;34.20;;;;;;6211912;23;20230;-41
2023/11/09 11:10:30;;;;;;;1.60;1.45;;;22.00;34.00;;;;;;6211900;23;20209;-41
2023/11/09 11:12:57;;;;;;;2.47;1.50;;;22.00;34.00;;;;;;6212107;23;20201;-46
2023/11/09 11:15:23;;;;;;;1.48;1.30;;;22.00;33.90;;;;;;6211557;23;20325;-44
2023/11/09 11:17:50;;;;;;;1.98;1.50;;;22.00;33.90;;;;;;6213370;23;20294;-39
2023/11/09 11:20:18;;;;;;;2.58;1.40;;;22.10;33.70;;;;;;6212872;23;20186;-43
2023/11/09 11:22:44;;;;;;;1.27;1.13;;;22.10;34.20;;;;;;6214022;23;20174;-42
2023/11/09 11:25:14;;;;;;;1.40;1.30;;;22.10;33.90;;;;;;6214376;23;20244;-42
2023/11/09 11:27:41;;;;;;;1.85;1.40;;;22.00;33.60;;;;;;6214491;23;20198;-43
2023/11/09 11:30:10;;;;;;;1.20;1.10;;;22.00;33.50;;;;;;6214684;23;20236;-43
2023/11/09 11:32:38;;;;;;;1.13;1.02;;;22.10;33.60;;;;;;6214563;23;20178;-41
2023/11/09 11:35:04;;;;;;;1.33;1.23;;;22.00;33.70;;;;;;6214633;23;20173;-41
2023/11/09 11:37:30;;;;;;;1.88;1.27;;;22.00;33.70;;;;;;6214199;23;20236;-39
2023/11/09 11:39:59;;;;;;;1.50;1.35;;;22.00;33.60;;;;;;6212120;23;20512;-39
2023/11/09 11:42:27;;;;;;;1.70;1.30;;;22.00;33.60;;;;;;6211692;23;20572;-41
2023/11/09 11:44:53;;;;;;;2.72;1.23;;;22.00;33.80;;;;;;6213395;23;20184;-44
2023/11/09 11:47:20;;;;;;;4.30;1.20;;;22.00;33.80;;;;;;6214150;23;20261;-46
2023/11/09 11:49:46;;;;;;;2.55;1.40;;;22.00;33.80;;;;;;6213621;23;20213;-46
2023/11/09 11:52:13;;;;;;;1.30;1.20;;;22.00;33.90;;;;;;6209266;23;20178;-45
2023/11/09 11:54:39;;;;;;;1.77;1.23;;;22.00;34.00;;;;;;6210236;23;20662;-49
2023/11/09 11:57:06;;;;;;;1.48;1.38;;;21.90;33.70;;;;;;6215137;23;20574;-46
2023/11/09 11:59:32;;;;;;;1.50;1.40;;;21.90;33.40;;;;;;6211589;23;20193;-45
2023/11/09 12:01:59;;;;;;;1.15;1.08;;;21.90;33.30;;;;;;6212701;23;20252;-48
2023/11/09 12:04:25;;;;;;;1.30;1.20;;;21.90;33.40;;;;;;6214187;23;20252;-46
2023/11/09 12:06:53;;;;;;;1.75;1.27;;;21.90;33.20;;;;;;6208491;23;20238;-45
2023/11/09 12:09:20;;;;;;;1.77;1.35;;;21.90;33.10;;;;;;6213377;23;20593;-47
2023/11/09 12:11:47;;;;;;;1.27;1.10;;;21.90;33.10;;;;;;6213177;23;20227;-46
2023/11/09 12:14:13;;;;;;;1.20;1.10;;;21.90;33.10;;;;;;6213599;23;20185;-43
2023/11/09 12:16:40;;;;;;;1.65;1.10;;;21.90;33.00;;;;;;6213927;23;20205;-44
2023/11/09 12:19:11;;;;;;;1.60;1.20;;;21.90;33.00;;;;;;6213514;23;20265;-51
2023/11/09 12:21:37;;;;;;;1.67;1.58;;;21.90;33.00;;;;;;6213614;23;20177;-48
2023/11/09 12:24:04;;;;;;;1.48;1.10;;;21.90;33.00;;;;;;6211608;23;20174;-50
2023/11/09 12:26:32;;;;;;;1.30;1.20;;;21.90;33.00;;;;;;6212378;23;20256;-47
2023/11/09 12:28:59;;;;;;;1.35;1.20;;;21.90;33.10;;;;;;6214057;23;20201;-48
2023/11/09 12:31:27;;;;;;;1.20;1.10;;;21.90;33.10;;;;;;6212813;23;20193;-44
2023/11/09 12:33:53;;;;;;;1.30;1.20;;;21.90;32.90;;;;;;6214238;23;20182;-42
2023/11/09 12:36:19;;;;;;;0.95;0.95;;;21.90;32.60;;;;;;6213683;23;20220;-40
2023/11/09 12:38:46;;;;;;;1.50;1.30;;;22.00;32.80;;;;;;6210947;23;20217;-38
2023/11/09 12:41:12;;;;;;;1.90;1.02;;;22.10;31.70;;;;;;6211721;23;20181;-42
2023/11/09 12:43:39;;;;;;;1.30;1.20;;;22.30;31.70;;;;;;6213719;23;20265;-43
2023/11/09 12:46:08;;;;;;;1.13;1.02;;;22.30;32.10;;;;;;6209795;23;20186;-42
2023/11/09 12:48:35;;;;;;;1.15;1.02;;;22.20;32.40;;;;;;6212275;23;20247;-42
2023/11/09 12:51:02;;;;;;;1.30;1.20;;;22.20;32.60;;;;;;6211284;23;20177;-42
2023/11/09 12:53:32;;;;;;;1.10;1.00;;;22.20;32.60;;;;;;6213299;23;20186;-41